Terminal Aerodrome Forecast
Issued by NWS

Home | Current Version | Previous Version | Graphics & Text | Print | Product List | Glossary On
Versions: 1 2 3 4 5 6 7 8 9 10 11 12 13 14
297
FTUS43 KMPX 082337
TAFRWF
TAF
KRWF 082337Z 0900/0924 28012KT P6SM OVC070
     FM090200 31015G23KT P6SM OVC050
     FM090800 33014G23KT P6SM OVC030
     FM091500 33011KT P6SM BKN035 OVC050
     FM091900 31010KT P6SM SCT110
     FM092300 25007KT P6SM SCT200=

USA.gov is the U.S. government's official web portal to all federal, state and local government web resources and services.